Terminal Aerodrome Forecast
Issued by NWS

Home | Current Version | Previous Version | Text Only | Print | Product List | Glossary On
Versions: 1 2 3 4 5 6 7 8 9 10 11 12 13 14 15 16
000
FTUS45 KSLC 190538 CCA
TAFPVU
TAF COR
KPVU 190538Z 1906/2006 VRB05KT 4SM BR OVC110
     FM191100 VRB05KT 5SM -RASN BR SCT007 BKN015
     FM191900 VRB05KT 2SM -SN BR SCT007 BKN015
     FM200200 VRB05KT P6SM -SHSN SCT007 BKN015=

USA.gov is the U.S. government's official web portal to all federal, state and local government web resources and services.